sensor_id;sensor_type;location;lat;lon;timestamp;pressure;altitude;pressure_sealevel;temperature;humidity
62634;BME280;48704;50.534;6.442;2023-12-28T00:01:07;95075.34;;;4.21;100.00
62634;BME280;48704;50.534;6.442;2023-12-28T00:03:32;95083.63;;;4.21;100.00
62634;BME280;48704;50.534;6.442;2023-12-28T00:05:57;95083.28;;;4.19;100.00
62634;BME280;48704;50.534;6.442;2023-12-28T00:08:22;95095.53;;;4.18;100.00
62634;BME280;48704;50.534;6.442;2023-12-28T00:10:48;95075.03;;;4.19;100.00
62634;BME280;48704;50.534;6.442;2023-12-28T00:13:13;95083.28;;;4.19;100.00
62634;BME280;48704;50.534;6.442;2023-12-28T00:15:38;95093.09;;;4.20;100.00
62634;BME280;48704;50.534;6.442;2023-12-28T00:18:04;95086.81;;;4.19;100.00
62634;BME280;48704;50.534;6.442;2023-12-28T00:20:29;95093.09;;;4.20;100.00
62634;BME280;48704;50.534;6.442;2023-12-28T00:22:55;95092.78;;;4.18;100.00
62634;BME280;48704;50.534;6.442;2023-12-28T00:25:20;95095.53;;;4.18;100.00
62634;BME280;48704;50.534;6.442;2023-12-28T00:27:45;95111.97;;;4.21;100.00
62634;BME280;48704;50.534;6.442;2023-12-28T00:30:11;95104.47;;;4.22;100.00
62634;BME280;48704;50.534;6.442;2023-12-28T00:32:37;95118.25;;;4.22;100.00
62634;BME280;48704;50.534;6.442;2023-12-28T00:35:02;95122.56;;;4.23;100.00
62634;BME280;48704;50.534;6.442;2023-12-28T00:37:27;95125.19;;;4.26;100.00
62634;BME280;48704;50.534;6.442;2023-12-28T00:39:53;95121.22;;;4.27;100.00
62634;BME280;48704;50.534;6.442;2023-12-28T00:42:18;95108.19;;;4.28;100.00
62634;BME280;48704;50.534;6.442;2023-12-28T00:44:44;95107.22;;;4.22;100.00
62634;BME280;48704;50.534;6.442;2023-12-28T00:47:10;95102.03;;;4.24;100.00
62634;BME280;48704;50.534;6.442;2023-12-28T00:49:36;95130.69;;;4.26;100.00
62634;BME280;48704;50.534;6.442;2023-12-28T00:52:01;95131.47;;;4.27;100.00
62634;BME280;48704;50.534;6.442;2023-12-28T00:54:26;95114.81;;;4.30;100.00
62634;BME280;48704;50.534;6.442;2023-12-28T00:56:52;95107.28;;;4.31;100.00
62634;BME280;48704;50.534;6.442;2023-12-28T00:59:17;95122.94;;;4.34;100.00
62634;BME280;48704;50.534;6.442;2023-12-28T01:01:42;95124.94;;;4.33;100.00
62634;BME280;48704;50.534;6.442;2023-12-28T01:04:07;95108.72;;;4.35;100.00
62634;BME280;48704;50.534;6.442;2023-12-28T01:06:33;95116.53;;;4.37;100.00
62634;BME280;48704;50.534;6.442;2023-12-28T01:08:58;95116.22;;;4.35;100.00
62634;BME280;48704;50.534;6.442;2023-12-28T01:11:23;95126.34;;;4.38;100.00
62634;BME280;48704;50.534;6.442;2023-12-28T01:13:51;95126.69;;;4.40;100.00
62634;BME280;48704;50.534;6.442;2023-12-28T01:16:17;95123.91;;;4.40;100.00
62634;BME280;48704;50.534;6.442;2023-12-28T01:18:42;95143.22;;;4.40;100.00
62634;BME280;48704;50.534;6.442;2023-12-28T01:21:08;95142.94;;;4.47;100.00
62634;BME280;48704;50.534;6.442;2023-12-28T01:23:33;95127.94;;;4.48;100.00
62634;BME280;48704;50.534;6.442;2023-12-28T01:25:59;95136.53;;;4.50;100.00
62634;BME280;48704;50.534;6.442;2023-12-28T01:28:24;95155.09;;;4.50;100.00
62634;BME280;48704;50.534;6.442;2023-12-28T01:30:50;95143.59;;;4.51;100.00
62634;BME280;48704;50.534;6.442;2023-12-28T01:33:15;95164.78;;;4.54;100.00
62634;BME280;48704;50.534;6.442;2023-12-28T01:35:41;95131.03;;;4.50;100.00
62634;BME280;48704;50.534;6.442;2023-12-28T01:38:06;95146.34;;;4.51;100.00
62634;BME280;48704;50.534;6.442;2023-12-28T01:40:32;95149.44;;;4.53;100.00
62634;BME280;48704;50.534;6.442;2023-12-28T01:42:57;95142.38;;;4.52;100.00
62634;BME280;48704;50.534;6.442;2023-12-28T01:45:22;95132.88;;;4.53;100.00
62634;BME280;48704;50.534;6.442;2023-12-28T01:47:48;95150.22;;;4.54;100.00
62634;BME280;48704;50.534;6.442;2023-12-28T01:50:14;95161.25;;;4.54;100.00
62634;BME280;48704;50.534;6.442;2023-12-28T01:52:40;95153.63;;;4.58;100.00
62634;BME280;48704;50.534;6.442;2023-12-28T01:55:06;95168.19;;;4.58;100.00
62634;BME280;48704;50.534;6.442;2023-12-28T01:57:33;95155.03;;;4.62;100.00
62634;BME280;48704;50.534;6.442;2023-12-28T01:59:59;95140.47;;;4.62;100.00
62634;BME280;48704;50.534;6.442;2023-12-28T02:02:27;95155.03;;;4.62;100.00
62634;BME280;48704;50.534;6.442;2023-12-28T02:04:53;95163.06;;;4.69;100.00
62634;BME280;48704;50.534;6.442;2023-12-28T02:07:20;95158.31;;;4.70;100.00
62634;BME280;48704;50.534;6.442;2023-12-28T02:09:46;95183.47;;;4.72;100.00
62634;BME280;48704;50.534;6.442;2023-12-28T02:12:11;95151.88;;;4.73;100.00
62634;BME280;48704;50.534;6.442;2023-12-28T02:14:37;95152.53;;;4.77;100.00
62634;BME280;48704;50.534;6.442;2023-12-28T02:19:50;95164.97;;;4.82;100.00
62634;BME280;48704;50.534;6.442;2023-12-28T02:22:16;95149.94;;;4.83;100.00
62634;BME280;48704;50.534;6.442;2023-12-28T02:25:10;95176.97;;;4.88;100.00
62634;BME280;48704;50.534;6.442;2023-12-28T02:27:45;95149.69;;;4.90;100.00
62634;BME280;48704;50.534;6.442;2023-12-28T02:30:16;95168.56;;;4.91;100.00
62634;BME280;48704;50.534;6.442;2023-12-28T02:35:45;95158.78;;;4.99;100.00
62634;BME280;48704;50.534;6.442;2023-12-28T02:38:14;95159.56;;;5.00;100.00
62634;BME280;48704;50.534;6.442;2023-12-28T02:40:42;95163.53;;;4.99;100.00
62634;BME280;48704;50.534;6.442;2023-12-28T02:43:11;95154.34;;;5.02;100.00
62634;BME280;48704;50.534;6.442;2023-12-28T02:45:38;95159.56;;;5.00;100.00
62634;BME280;48704;50.534;6.442;2023-12-28T02:48:04;95183.81;;;5.05;100.00
62634;BME280;48704;50.534;6.442;2023-12-28T02:50:30;95167.00;;;5.12;100.00
62634;BME280;48704;50.534;6.442;2023-12-28T02:52:56;95188.50;;;5.17;100.00
62634;BME280;48704;50.534;6.442;2023-12-28T02:55:22;95158.13;;;5.17;100.00
62634;BME280;48704;50.534;6.442;2023-12-28T02:57:49;95155.03;;;5.15;100.00
62634;BME280;48704;50.534;6.442;2023-12-28T03:00:15;95150.88;;;5.11;100.00
62634;BME280;48704;50.534;6.442;2023-12-28T03:02:40;95144.91;;;5.12;100.00
62634;BME280;48704;50.534;6.442;2023-12-28T03:05:06;95136.28;;;5.10;100.00
62634;BME280;48704;50.534;6.442;2023-12-28T03:07:35;95146.44;;;5.13;100.00
62634;BME280;48704;50.534;6.442;2023-12-28T03:10:00;95131.41;;;5.14;100.00
62634;BME280;48704;50.534;6.442;2023-12-28T03:12:27;95139.38;;;5.12;100.00
62634;BME280;48704;50.534;6.442;2023-12-28T03:14:53;95142.47;;;5.14;100.00
62634;BME280;48704;50.534;6.442;2023-12-28T03:17:18;95132.03;;;5.18;100.00
62634;BME280;48704;50.534;6.442;2023-12-28T03:19:43;95132.03;;;5.18;100.00
62634;BME280;48704;50.534;6.442;2023-12-28T03:22:09;95136.03;;;5.17;100.00
62634;BME280;48704;50.534;6.442;2023-12-28T03:24:36;95129.28;;;5.18;100.00
62634;BME280;48704;50.534;6.442;2023-12-28T03:27:02;95150.16;;;5.19;100.00
62634;BME280;48704;50.534;6.442;2023-12-28T03:29:28;95120.06;;;5.21;100.00
62634;BME280;48704;50.534;6.442;2023-12-28T03:31:54;95150.94;;;5.20;100.00
62634;BME280;48704;50.534;6.442;2023-12-28T03:34:19;95148.63;;;5.18;100.00
62634;BME280;48704;50.534;6.442;2023-12-28T03:36:44;95124.97;;;5.17;100.00
62634;BME280;48704;50.534;6.442;2023-12-28T03:39:10;95127.75;;;5.17;100.00
62634;BME280;48704;50.534;6.442;2023-12-28T03:41:35;95119.78;;;5.19;100.00
62634;BME280;48704;50.534;6.442;2023-12-28T03:44:00;95128.97;;;5.16;100.00
62634;BME280;48704;50.534;6.442;2023-12-28T03:46:26;95125.88;;;5.14;100.00
62634;BME280;48704;50.534;6.442;2023-12-28T03:48:52;95123.91;;;5.15;100.00
62634;BME280;48704;50.534;6.442;2023-12-28T03:51:17;95136.94;;;5.14;100.00
62634;BME280;48704;50.534;6.442;2023-12-28T03:53:43;95147.34;;;5.10;100.00
62634;BME280;48704;50.534;6.442;2023-12-28T03:56:26;95137.06;;;5.11;100.00
62634;BME280;48704;50.534;6.442;2023-12-28T03:58:52;95131.69;;;5.07;100.00
62634;BME280;48704;50.534;6.442;2023-12-28T04:01:18;95126.16;;;5.07;100.00
62634;BME280;48704;50.534;6.442;2023-12-28T04:03:44;95130.00;;;5.10;100.00
62634;BME280;48704;50.534;6.442;2023-12-28T04:06:10;95124.63;;;5.06;100.00
62634;BME280;48704;50.534;6.442;2023-12-28T04:08:41;95119.41;;;5.08;100.00
62634;BME280;48704;50.534;6.442;2023-12-28T04:11:07;95124.47;;;5.10;100.00
62634;BME280;48704;50.534;6.442;2023-12-28T04:13:33;95119.09;;;5.06;100.00
62634;BME280;48704;50.534;6.442;2023-12-28T04:15:58;95110.66;;;5.10;100.00
62634;BME280;48704;50.534;6.442;2023-12-28T04:18:24;95115.56;;;5.06;100.00
62634;BME280;48704;50.534;6.442;2023-12-28T04:20:49;95105.75;;;5.04;100.00
62634;BME280;48704;50.534;6.442;2023-12-28T04:23:15;95114.34;;;5.07;100.00
62634;BME280;48704;50.534;6.442;2023-12-28T04:25:40;95130.91;;;5.07;100.00
62634;BME280;48704;50.534;6.442;2023-12-28T04:28:06;95120.00;;;5.03;100.00
62634;BME280;48704;50.534;6.442;2023-12-28T04:30:32;95110.34;;;5.08;100.00
62634;BME280;48704;50.534;6.442;2023-12-28T04:32:58;95117.56;;;5.05;100.00
62634;BME280;48704;50.534;6.442;2023-12-28T04:35:23;95120.31;;;5.05;100.00
62634;BME280;48704;50.534;6.442;2023-12-28T04:37:48;95116.00;;;5.04;100.00
62634;BME280;48704;50.534;6.442;2023-12-28T04:40:14;95120.00;;;5.03;100.00
62634;BME280;48704;50.534;6.442;2023-12-28T04:42:42;95122.44;;;5.01;100.00
62634;BME280;48704;50.534;6.442;2023-12-28T04:45:08;95121.22;;;5.02;100.00
62634;BME280;48704;50.534;6.442;2023-12-28T04:47:33;95129.50;;;5.02;100.00
62634;BME280;48704;50.534;6.442;2023-12-28T04:49:58;95114.75;;;4.96;100.00
62634;BME280;48704;50.534;6.442;2023-12-28T04:52:24;95111.72;;;5.03;100.00
62634;BME280;48704;50.534;6.442;2023-12-28T04:54:49;95163.41;;;5.02;100.00
62634;BME280;48704;50.534;6.442;2023-12-28T04:57:14;95123.97;;;5.02;100.00
62634;BME280;48704;50.534;6.442;2023-12-28T04:59:40;95117.81;;;4.98;100.00
62634;BME280;48704;50.534;6.442;2023-12-28T05:02:06;95124.88;;;4.99;100.00
62634;BME280;48704;50.534;6.442;2023-12-28T05:04:32;95115.69;;;5.02;100.00
62634;BME280;48704;50.534;6.442;2023-12-28T05:06:57;95116.91;;;5.01;100.00
62634;BME280;48704;50.534;6.442;2023-12-28T05:09:22;95112.94;;;5.02;100.00
62634;BME280;48704;50.534;6.442;2023-12-28T05:11:48;95120.75;;;5.03;100.00
62634;BME280;48704;50.534;6.442;2023-12-28T05:14:13;95135.66;;;5.06;100.00
62634;BME280;48704;50.534;6.442;2023-12-28T05:16:38;95101.88;;;5.02;100.00
62634;BME280;48704;50.534;6.442;2023-12-28T05:19:03;95122.44;;;5.01;100.00
62634;BME280;48704;50.534;6.442;2023-12-28T05:21:29;95128.88;;;4.98;100.00
62634;BME280;48704;50.534;6.442;2023-12-28T05:23:54;95127.31;;;4.97;100.00
62634;BME280;48704;50.534;6.442;2023-12-28T05:26:19;95120.25;;;4.96;100.00
62634;BME280;48704;50.534;6.442;2023-12-28T05:28:45;95113.84;;;4.99;100.00
62634;BME280;48704;50.534;6.442;2023-12-28T05:31:10;95099.44;;;5.04;100.00
62634;BME280;48704;50.534;6.442;2023-12-28T05:33:35;95110.63;;;5.00;100.00
62634;BME280;48704;50.534;6.442;2023-12-28T05:36:01;95123.03;;;4.96;100.00
62634;BME280;48704;50.534;6.442;2023-12-28T05:38:26;95105.38;;;4.93;100.00
62634;BME280;48704;50.534;6.442;2023-12-28T05:40:51;95110.75;;;4.97;100.00
62634;BME280;48704;50.534;6.442;2023-12-28T05:43:16;95135.66;;;5.06;100.00
62634;BME280;48704;50.534;6.442;2023-12-28T05:45:42;95167.25;;;5.05;100.00
62634;BME280;48704;50.534;6.442;2023-12-28T05:48:07;95143.63;;;5.04;100.00
62634;BME280;48704;50.534;6.442;2023-12-28T05:50:33;95131.81;;;5.03;100.00
62634;BME280;48704;50.534;6.442;2023-12-28T05:52:58;95117.69;;;5.01;100.00
62634;BME280;48704;50.534;6.442;2023-12-28T05:55:24;95133.22;;;5.08;100.00
62634;BME280;48704;50.534;6.442;2023-12-28T05:57:50;95155.31;;;5.08;100.00
62634;BME280;48704;50.534;6.442;2023-12-28T06:00:15;95174.06;;;5.13;100.00
62634;BME280;48704;50.534;6.442;2023-12-28T06:02:41;95149.53;;;5.15;100.00
62634;BME280;48704;50.534;6.442;2023-12-28T06:05:06;95166.22;;;5.12;100.00
62634;BME280;48704;50.534;6.442;2023-12-28T06:07:33;95160.69;;;5.12;100.00
62634;BME280;48704;50.534;6.442;2023-12-28T06:09:59;95141.56;;;5.17;100.00
62634;BME280;48704;50.534;6.442;2023-12-28T06:12:25;95163.66;;;5.17;100.00
62634;BME280;48704;50.534;6.442;2023-12-28T06:14:50;95159.03;;;5.14;100.00
62634;BME280;48704;50.534;6.442;2023-12-28T06:17:15;95160.56;;;5.15;100.00
62634;BME280;48704;50.534;6.442;2023-12-28T06:19:41;95162.09;;;5.16;100.00
62634;BME280;48704;50.534;6.442;2023-12-28T06:22:06;95157.03;;;5.15;100.00
62634;BME280;48704;50.534;6.442;2023-12-28T06:24:32;95161.47;;;5.12;100.00
62634;BME280;48704;50.534;6.442;2023-12-28T06:26:57;95166.09;;;5.15;100.00
62634;BME280;48704;50.534;6.442;2023-12-28T06:29:23;95191.84;;;5.12;100.00
62634;BME280;48704;50.534;6.442;2023-12-28T06:31:48;95158.13;;;5.17;100.00
62634;BME280;48704;50.534;6.442;2023-12-28T06:34:13;95169.16;;;5.17;100.00
62634;BME280;48704;50.534;6.442;2023-12-28T06:36:38;95194.59;;;5.12;100.00
62634;BME280;48704;50.534;6.442;2023-12-28T06:39:04;95177.13;;;5.15;100.00
62634;BME280;48704;50.534;6.442;2023-12-28T06:41:29;95168.25;;;5.20;100.00
62634;BME280;48704;50.534;6.442;2023-12-28T06:43:54;95158.13;;;5.17;100.00
62634;BME280;48704;50.534;6.442;2023-12-28T06:46:20;95169.16;;;5.17;100.00
62634;BME280;48704;50.534;6.442;2023-12-28T06:48:46;95147.97;;;5.14;100.00
62634;BME280;48704;50.534;6.442;2023-12-28T06:51:19;95174.38;;;5.15;100.00
62634;BME280;48704;50.534;6.442;2023-12-28T06:53:45;95167.94;;;5.18;100.00
62634;BME280;48704;50.534;6.442;2023-12-28T06:56:10;95181.25;;;5.11;100.00
62634;BME280;48704;50.534;6.442;2023-12-28T06:58:36;95174.06;;;5.13;100.00
62634;BME280;48704;50.534;6.442;2023-12-28T07:01:05;95186.00;;;5.10;100.00
62634;BME280;48704;50.534;6.442;2023-12-28T07:03:30;95184.47;;;5.09;100.00
62634;BME280;48704;50.534;6.442;2023-12-28T07:05:58;95198.28;;;5.09;100.00
62634;BME280;48704;50.534;6.442;2023-12-28T07:08:23;95188.19;;;5.15;100.00
62634;BME280;48704;50.534;6.442;2023-12-28T07:10:48;95173.75;;;5.11;100.00
62634;BME280;48704;50.534;6.442;2023-12-28T07:13:14;95195.50;;;5.09;100.00
62634;BME280;48704;50.534;6.442;2023-12-28T07:15:39;95176.25;;;5.18;100.00
62634;BME280;48704;50.534;6.442;2023-12-28T07:18:04;95206.31;;;5.16;100.00
62634;BME280;48704;50.534;6.442;2023-12-28T07:20:30;95181.75;;;5.18;100.00
62634;BME280;48704;50.534;6.442;2023-12-28T07:22:55;95182.66;;;5.15;100.00
62634;BME280;48704;50.534;6.442;2023-12-28T07:25:20;95199.22;;;5.15;100.00
62634;BME280;48704;50.534;6.442;2023-12-28T07:27:46;95219.78;;;5.14;100.00
62634;BME280;48704;50.534;6.442;2023-12-28T07:30:12;95227.75;;;5.12;100.00
62634;BME280;48704;50.534;6.442;2023-12-28T07:32:37;95186.66;;;5.14;100.00
62634;BME280;48704;50.534;6.442;2023-12-28T07:35:03;95198.59;;;5.11;100.00
62634;BME280;48704;50.534;6.442;2023-12-28T07:37:29;95207.47;;;5.06;100.00
62634;BME280;48704;50.534;6.442;2023-12-28T07:39:54;95200.47;;;5.14;100.00
62634;BME280;48704;50.534;6.442;2023-12-28T07:42:20;95215.81;;;5.15;100.00
62634;BME280;48704;50.534;6.442;2023-12-28T07:44:45;95208.44;;;5.21;100.00
62634;BME280;48704;50.534;6.442;2023-12-28T07:47:10;95235.78;;;5.19;100.00
62634;BME280;48704;50.534;6.442;2023-12-28T07:49:37;95223.47;;;5.20;100.00
62634;BME280;48704;50.534;6.442;2023-12-28T07:52:02;95223.97;;;5.19;100.00
62634;BME280;48704;50.534;6.442;2023-12-28T07:54:28;95241.91;;;5.23;100.00
62634;BME280;48704;50.534;6.442;2023-12-28T07:56:54;95232.72;;;5.26;100.00
62634;BME280;48704;50.534;6.442;2023-12-28T07:59:19;95229.78;;;5.21;100.00
62634;BME280;48704;50.534;6.442;2023-12-28T08:01:44;95229.66;;;5.24;100.00
62634;BME280;48704;50.534;6.442;2023-12-28T08:04:11;95239.94;;;5.24;100.00
62634;BME280;48704;50.534;6.442;2023-12-28T08:06:36;95241.34;;;5.28;100.00
62634;BME280;48704;50.534;6.442;2023-12-28T08:09:01;95253.28;;;5.25;100.00
62634;BME280;48704;50.534;6.442;2023-12-28T08:11:27;95251.44;;;5.22;100.00
62634;BME280;48704;50.534;6.442;2023-12-28T08:13:52;95258.16;;;5.21;100.00
62634;BME280;48704;50.534;6.442;2023-12-28T08:16:19;95273.84;;;5.24;100.00
62634;BME280;48704;50.534;6.442;2023-12-28T08:18:44;95285.78;;;5.21;100.00
62634;BME280;48704;50.534;6.442;2023-12-28T08:21:09;95281.81;;;5.22;100.00
62634;BME280;48704;50.534;6.442;2023-12-28T08:23:35;95275.38;;;5.25;100.00
62634;BME280;48704;50.534;6.442;2023-12-28T08:26:00;95280.91;;;5.25;100.00
62634;BME280;48704;50.534;6.442;2023-12-28T08:28:25;95284.56;;;5.22;100.00
62634;BME280;48704;50.534;6.442;2023-12-28T08:30:51;95287.97;;;5.26;100.00
62634;BME280;48704;50.534;6.442;2023-12-28T08:33:16;95291.38;;;5.30;100.00
62634;BME280;48704;50.534;6.442;2023-12-28T08:35:42;95292.16;;;5.31;100.00
62634;BME280;48704;50.534;6.442;2023-12-28T08:38:07;95293.50;;;5.26;100.00
62634;BME280;48704;50.534;6.442;2023-12-28T08:40:33;95291.06;;;5.28;100.00
62634;BME280;48704;50.534;6.442;2023-12-28T08:42:58;95298.44;;;5.31;100.00
62634;BME280;48704;50.534;6.442;2023-12-28T08:45:23;95292.47;;;5.33;100.00
62634;BME280;48704;50.534;6.442;2023-12-28T08:47:49;95304.28;;;5.33;100.00
62634;BME280;48704;50.534;6.442;2023-12-28T08:50:14;95303.41;;;5.36;100.00
62634;BME280;48704;50.534;6.442;2023-12-28T08:52:40;95316.63;;;5.42;100.00
62634;BME280;48704;50.534;6.442;2023-12-28T08:55:05;95317.28;;;5.46;100.00
62634;BME280;48704;50.534;6.442;2023-12-28T08:57:31;95308.41;;;5.51;100.00
62634;BME280;48704;50.534;6.442;2023-12-28T08:59:56;95311.97;;;5.60;100.00
62634;BME280;48704;50.534;6.442;2023-12-28T09:02:22;95324.75;;;5.67;100.00
62634;BME280;48704;50.534;6.442;2023-12-28T09:04:48;95324.19;;;5.72;100.00
62634;BME280;48704;50.534;6.442;2023-12-28T09:07:13;95330.81;;;5.75;100.00
62634;BME280;48704;50.534;6.442;2023-12-28T09:09:39;95331.13;;;5.77;100.00
62634;BME280;48704;50.534;6.442;2023-12-28T09:12:04;95338.31;;;5.74;100.00
62634;BME280;48704;50.534;6.442;2023-12-28T09:14:30;95332.53;;;5.81;100.00
62634;BME280;48704;50.534;6.442;2023-12-28T09:16:55;95339.28;;;5.80;100.00
62634;BME280;48704;50.534;6.442;2023-12-28T09:19:20;95340.38;;;5.83;100.00
62634;BME280;48704;50.534;6.442;2023-12-28T09:21:46;95358.38;;;5.87;100.00
62634;BME280;48704;50.534;6.442;2023-12-28T09:24:11;95344.78;;;5.93;100.00
62634;BME280;48704;50.534;6.442;2023-12-28T09:26:36;95348.31;;;5.93;100.00
62634;BME280;48704;50.534;6.442;2023-12-28T09:29:02;95349.81;;;5.94;100.00
62634;BME280;48704;50.534;6.442;2023-12-28T09:31:27;95345.22;;;5.91;100.00
62634;BME280;48704;50.534;6.442;2023-12-28T09:33:52;95335.03;;;5.88;100.00
62634;BME280;48704;50.534;6.442;2023-12-28T09:36:20;95344.56;;;5.87;100.00
62634;BME280;48704;50.534;6.442;2023-12-28T09:38:48;95347.31;;;5.87;100.00
62634;BME280;48704;50.534;6.442;2023-12-28T09:41:14;95349.00;;;5.85;100.00
62634;BME280;48704;50.534;6.442;2023-12-28T09:46:28;95353.75;;;5.84;100.00
62634;BME280;48704;50.534;6.442;2023-12-28T09:48:53;95362.03;;;5.84;100.00
62634;BME280;48704;50.534;6.442;2023-12-28T09:51:21;95353.50;;;5.91;100.00
62634;BME280;48704;50.534;6.442;2023-12-28T09:53:47;95362.13;;;5.93;100.00
62634;BME280;48704;50.534;6.442;2023-12-28T09:56:13;95364.56;;;5.91;100.00
62634;BME280;48704;50.534;6.442;2023-12-28T09:58:40;95344.59;;;5.96;100.00
62634;BME280;48704;50.534;6.442;2023-12-28T10:01:06;95364.28;;;5.98;100.00
62634;BME280;48704;50.534;6.442;2023-12-28T10:03:31;95355.41;;;6.03;100.00
62634;BME280;48704;50.534;6.442;2023-12-28T10:05:56;95356.94;;;6.04;100.00
62634;BME280;48704;50.534;6.442;2023-12-28T10:08:22;95352.19;;;6.05;100.00
62634;BME280;48704;50.534;6.442;2023-12-28T10:10:47;95344.34;;;6.03;100.00
62634;BME280;48704;50.534;6.442;2023-12-28T10:13:17;95358.50;;;6.06;100.00
62634;BME280;48704;50.534;6.442;2023-12-28T10:15:43;95348.97;;;6.07;100.00
62634;BME280;48704;50.534;6.442;2023-12-28T10:18:09;95343.44;;;6.07;100.00
62634;BME280;48704;50.534;6.442;2023-12-28T10:20:34;95357.59;;;6.09;100.00
62634;BME280;48704;50.534;6.442;2023-12-28T10:23:00;95351.28;;;6.08;100.00
62634;BME280;48704;50.534;6.442;2023-12-28T10:25:30;95354.09;;;6.17;100.00
62634;BME280;48704;50.534;6.442;2023-12-28T10:27:55;95353.59;;;6.10;100.00
62634;BME280;48704;50.534;6.442;2023-12-28T10:30:21;95347.94;;;6.13;100.00
62634;BME280;48704;50.534;6.442;2023-12-28T10:32:46;95345.34;;;6.19;100.00
62634;BME280;48704;50.534;6.442;2023-12-28T10:35:12;95340.44;;;6.23;100.00
62634;BME280;48704;50.534;6.442;2023-12-28T10:37:42;95338.00;;;6.34;100.00
62634;BME280;48704;50.534;6.442;2023-12-28T10:40:07;95317.41;;;6.26;100.00
62634;BME280;48704;50.534;6.442;2023-12-28T10:43:04;95328.94;;;6.33;100.00
62634;BME280;48704;50.534;6.442;2023-12-28T10:45:32;95309.09;;;6.26;100.00
62634;BME280;48704;50.534;6.442;2023-12-28T10:48:12;95304.19;;;6.39;100.00
62634;BME280;48704;50.534;6.442;2023-12-28T10:53:13;95291.34;;;6.82;100.00
62634;BME280;48704;50.534;6.442;2023-12-28T10:55:48;95291.66;;;7.11;100.00
62634;BME280;48704;50.534;6.442;2023-12-28T10:58:28;95306.41;;;7.45;100.00
62634;BME280;48704;50.534;6.442;2023-12-28T11:01:02;95285.31;;;7.47;100.00
62634;BME280;48704;50.534;6.442;2023-12-28T11:03:34;95291.34;;;7.18;100.00
62634;BME280;48704;50.534;6.442;2023-12-28T11:06:02;95289.50;;;7.15;100.00
62634;BME280;48704;50.534;6.442;2023-12-28T11:08:29;95297.78;;;7.52;100.00
62634;BME280;48704;50.534;6.442;2023-12-28T11:10:58;95291.38;;;7.00;100.00
62634;BME280;48704;50.534;6.442;2023-12-28T11:13:28;95284.28;;;6.90;100.00
62634;BME280;48704;50.534;6.442;2023-12-28T11:15:55;95292.91;;;6.92;100.00
62634;BME280;48704;50.534;6.442;2023-12-28T11:18:22;95304.13;;;6.88;100.00
62634;BME280;48704;50.534;6.442;2023-12-28T11:20:49;95297.19;;;6.75;100.00
62634;BME280;48704;50.534;6.442;2023-12-28T11:23:15;95280.91;;;6.67;100.00
62634;BME280;48704;50.534;6.442;2023-12-28T11:25:40;95273.50;;;7.28;100.00
62634;BME280;48704;50.534;6.442;2023-12-28T11:28:12;95268.09;;;7.25;100.00
62634;BME280;48704;50.534;6.442;2023-12-28T11:30:38;95273.22;;;6.99;100.00
62634;BME280;48704;50.534;6.442;2023-12-28T11:33:07;95259.97;;;6.76;100.00
62634;BME280;48704;50.534;6.442;2023-12-28T11:35:39;95267.56;;;7.72;100.00
62634;BME280;48704;50.534;6.442;2023-12-28T11:38:06;95262.03;;;7.54;100.00
62634;BME280;48704;50.534;6.442;2023-12-28T11:40:47;95254.41;;;7.30;100.00
62634;BME280;48704;50.534;6.442;2023-12-28T11:43:19;95255.63;;;7.38;100.00
62634;BME280;48704;50.534;6.442;2023-12-28T11:45:49;95252.53;;;7.36;100.00
62634;BME280;48704;50.534;6.442;2023-12-28T11:48:25;95248.94;;;7.63;100.00
62634;BME280;48704;50.534;6.442;2023-12-28T11:50:56;95274.97;;;7.57;100.00
62634;BME280;48704;50.534;6.442;2023-12-28T11:53:22;95272.53;;;7.50;100.00
62634;BME280;48704;50.534;6.442;2023-12-28T11:55:49;95263.03;;;7.32;100.00
62634;BME280;48704;50.534;6.442;2023-12-28T11:58:19;95262.34;;;7.47;100.00
62634;BME280;48704;50.534;6.442;2023-12-28T12:00:44;95272.38;;;7.95;100.00
62634;BME280;48704;50.534;6.442;2023-12-28T12:03:10;95263.69;;;7.69;100.00
62634;BME280;48704;50.534;6.442;2023-12-28T12:05:36;95256.81;;;8.31;100.00
62634;BME280;48704;50.534;6.442;2023-12-28T12:08:02;95264.16;;;7.77;100.00
62634;BME280;48704;50.534;6.442;2023-12-28T12:10:28;95244.94;;;7.97;100.00
62634;BME280;48704;50.534;6.442;2023-12-28T12:12:53;95247.63;;;7.41;100.00
62634;BME280;48704;50.534;6.442;2023-12-28T12:15:19;95260.56;;;8.19;100.00
62634;BME280;48704;50.534;6.442;2023-12-28T12:17:44;95259.09;;;7.66;100.00
62634;BME280;48704;50.534;6.442;2023-12-28T12:20:09;95256.50;;;7.45;100.00
62634;BME280;48704;50.534;6.442;2023-12-28T12:22:35;95249.47;;;7.34;100.00
62634;BME280;48704;50.534;6.442;2023-12-28T12:25:03;95259.78;;;7.85;100.00
62634;BME280;48704;50.534;6.442;2023-12-28T12:27:31;95238.34;;;7.86;100.00
62634;BME280;48704;50.534;6.442;2023-12-28T12:29:56;95245.53;;;7.68;100.00
62634;BME280;48704;50.534;6.442;2023-12-28T12:32:22;95241.81;;;8.14;100.00
62634;BME280;48704;50.534;6.442;2023-12-28T12:34:47;95225.34;;;7.68;100.00
62634;BME280;48704;50.534;6.442;2023-12-28T12:37:13;95235.19;;;7.69;100.00
62634;BME280;48704;50.534;6.442;2023-12-28T12:39:38;95227.09;;;8.22;100.00
62634;BME280;48704;50.534;6.442;2023-12-28T12:42:04;95222.59;;;8.25;100.00
62634;BME280;48704;50.534;6.442;2023-12-28T12:44:32;95212.69;;;7.76;100.00
62634;BME280;48704;50.534;6.442;2023-12-28T12:46:58;95210.72;;;7.67;100.00
62634;BME280;48704;50.534;6.442;2023-12-28T12:49:24;95216.69;;;8.32;100.00
62634;BME280;48704;50.534;6.442;2023-12-28T12:51:50;95221.38;;;8.26;100.00
62634;BME280;48704;50.534;6.442;2023-12-28T12:54:17;95213.25;;;7.80;100.00
62634;BME280;48704;50.534;6.442;2023-12-28T12:56:43;95224.28;;;7.98;100.00
62634;BME280;48704;50.534;6.442;2023-12-28T12:59:11;95214.91;;;7.96;100.00
62634;BME280;48704;50.534;6.442;2023-12-28T13:01:41;95234.91;;;8.00;100.00
62634;BME280;48704;50.534;6.442;2023-12-28T13:04:06;95241.38;;;8.06;100.00
62634;BME280;48704;50.534;6.442;2023-12-28T13:06:32;95233.25;;;7.93;100.00